createdAt,value
2019-02-28T00:02:28.285Z,6.93
2019-02-28T00:04:57.140Z,6.80
2019-02-28T00:07:25.832Z,6.17
2019-02-28T00:09:57.403Z,6.20
2019-02-28T00:12:24.832Z,6.33
2019-02-28T00:14:53.442Z,6.47
2019-02-28T00:17:22.075Z,6.43
2019-02-28T00:19:50.912Z,7.30
2019-02-28T00:22:19.800Z,6.90
2019-02-28T00:25:07.661Z,55.77
2019-02-28T00:27:36.276Z,6.90
2019-02-28T00:30:25.932Z,6.97
2019-02-28T00:33:14.066Z,7.50
2019-02-28T00:35:44.645Z,7.27
2019-02-28T00:38:13.338Z,7.57
2019-02-28T00:41:01.289Z,43.50
2019-02-28T00:43:29.912Z,11.30
2019-02-28T00:45:58.531Z,74.73
2019-02-28T00:48:27.201Z,6.70
2019-02-28T00:51:15.040Z,7.60
2019-02-28T00:53:43.716Z,7.53
2019-02-28T00:56:12.310Z,8.93
2019-02-28T00:58:40.923Z,8.77
2019-02-28T01:01:11.501Z,8.60
2019-02-28T01:06:14.832Z,8.57
2019-02-28T01:08:43.443Z,8.40
2019-02-28T01:11:13.270Z,9.20
2019-02-28T01:13:42.434Z,8.87
2019-02-28T01:16:11.059Z,9.40
2019-02-28T01:18:58.951Z,10.70
2019-02-28T01:21:27.576Z,10.73
2019-02-28T01:23:56.247Z,11.33
2019-02-28T01:26:24.887Z,11.30
2019-02-28T01:28:53.478Z,14.50
2019-02-28T01:31:22.234Z,16.37
2019-02-28T01:33:51.107Z,14.93
2019-02-28T01:36:20.010Z,14.30
2019-02-28T01:38:48.611Z,15.73
2019-02-28T01:41:17.289Z,18.10
2019-02-28T01:43:46.206Z,17.80
2019-02-28T01:46:17.240Z,17.80
2019-02-28T01:48:45.121Z,23.33
2019-02-28T01:51:13.715Z,22.70
2019-02-28T01:56:16.398Z,23.63
2019-02-28T01:58:47.662Z,23.73
2019-02-28T02:01:34.823Z,24.20
2019-02-28T02:04:03.449Z,24.43
2019-02-28T02:09:19.894Z,25.27
2019-02-28T02:11:48.465Z,25.33
2019-02-28T02:14:17.187Z,27.20
2019-02-28T02:16:45.800Z,26.87
2019-02-28T02:19:18.560Z,26.47
2019-02-28T02:24:19.806Z,29.37
2019-02-28T02:26:48.405Z,30.23
2019-02-28T02:29:17.012Z,31.60
2019-02-28T02:31:45.676Z,30.33
2019-02-28T02:34:14.425Z,32.00
2019-02-28T02:36:43.331Z,32.77
2019-02-28T02:39:15.971Z,32.00
2019-02-28T02:41:42.571Z,32.90
2019-02-28T02:44:11.219Z,33.33
2019-02-28T02:46:40.099Z,32.70
2019-02-28T02:49:08.733Z,35.57
2019-02-28T02:51:37.341Z,36.80
2019-02-28T02:54:05.969Z,36.20
2019-02-28T02:56:53.829Z,37.90
2019-02-28T02:59:22.671Z,36.93
2019-02-28T03:01:56.184Z,37.50
2019-02-28T03:04:23.402Z,40.30
2019-02-28T03:06:52.254Z,38.37
2019-02-28T03:09:20.880Z,37.87
2019-02-28T03:11:49.478Z,39.57
2019-02-28T03:14:18.109Z,38.93
2019-02-28T03:16:46.725Z,38.70
2019-02-28T03:19:15.368Z,39.73
2019-02-28T03:21:51.444Z,40.70
2019-02-28T03:24:16.292Z,43.10
2019-02-28T03:27:04.382Z,42.77
2019-02-28T03:29:32.985Z,43.27
2019-02-28T03:34:58.070Z,45.97
2019-02-28T03:37:19.883Z,45.70
2019-02-28T03:45:11.054Z,48.80
2019-02-28T03:47:39.681Z,47.23
2019-02-28T03:50:09.170Z,49.17
2019-02-28T03:52:41.665Z,47.50
2019-02-28T03:55:08.450Z,49.47
2019-02-28T03:57:37.055Z,49.97
2019-02-28T04:02:43.487Z,50.37
2019-02-28T04:05:12.380Z,52.20
2019-02-28T04:07:41.012Z,51.80
2019-02-28T04:10:09.959Z,51.83
2019-02-28T04:12:57.801Z,52.00
2019-02-28T04:18:14.038Z,51.70
2019-02-28T04:20:42.656Z,51.80
2019-02-28T04:23:11.245Z,50.63
2019-02-28T04:25:59.096Z,53.60
2019-02-28T04:28:27.712Z,52.63
2019-02-28T04:31:20.071Z,49.53
2019-02-28T04:33:45.888Z,98.23
2019-02-28T04:36:14.737Z,49.60
2019-02-28T04:38:43.354Z,52.10
2019-02-28T04:41:11.943Z,50.00
2019-02-28T04:43:41.599Z,50.40
2019-02-28T04:46:11.099Z,50.37
2019-02-28T04:48:39.957Z,49.20
2019-02-28T04:51:08.561Z,51.97
2019-02-28T04:53:37.179Z,95.47
2019-02-28T04:56:10.983Z,49.23
2019-02-28T04:58:36.355Z,50.87
2019-02-28T05:01:05.203Z,51.20
2019-02-28T05:03:33.798Z,49.40
2019-02-28T05:06:02.410Z,50.53
2019-02-28T05:08:31.019Z,51.53
2019-02-28T05:10:59.623Z,50.50
2019-02-28T05:13:28.454Z,50.67
2019-02-28T05:15:57.063Z,49.00
2019-02-28T05:18:27.589Z,47.80
2019-02-28T05:20:56.241Z,46.37
2019-02-28T05:23:25.046Z,48.60
2019-02-28T05:25:53.665Z,46.70
2019-02-28T05:28:22.253Z,48.70
2019-02-28T05:30:53.691Z,46.50
2019-02-28T05:33:21.409Z,49.90
2019-02-28T05:35:50.003Z,46.97
2019-02-28T05:38:21.222Z,48.20
2019-02-28T05:40:48.971Z,46.60
2019-02-28T05:43:17.578Z,46.77
2019-02-28T05:45:49.491Z,45.13
2019-02-28T05:48:16.527Z,49.80
2019-02-28T05:51:08.664Z,48.43
2019-02-28T05:53:37.267Z,45.00
2019-02-28T05:56:05.880Z,47.60
2019-02-28T05:58:34.485Z,47.17
2019-02-28T06:01:03.115Z,49.57
2019-02-28T06:03:31.722Z,47.47
2019-02-28T06:06:00.732Z,46.40
2019-02-28T06:08:29.345Z,45.90
2019-02-28T06:11:08.912Z,46.33
2019-02-28T06:13:37.520Z,46.23
2019-02-28T06:16:11.165Z,46.03
2019-02-28T06:18:36.722Z,45.30
2019-02-28T06:21:05.412Z,44.60
2019-02-28T06:23:34.061Z,45.60
2019-02-28T06:26:02.777Z,46.10
2019-02-28T06:28:32.043Z,43.30
2019-02-28T06:31:00.733Z,41.73
2019-02-28T06:33:30.568Z,41.30
2019-02-28T06:35:59.742Z,39.77
2019-02-28T06:38:28.337Z,39.70
2019-02-28T06:40:57.232Z,43.23
2019-02-28T06:43:25.968Z,40.00
2019-02-28T06:45:54.677Z,40.03
2019-02-28T06:48:25.778Z,37.17
2019-02-28T06:50:53.738Z,37.83
2019-02-28T06:53:22.522Z,39.20
2019-02-28T06:55:51.143Z,36.63
2019-02-28T06:58:19.724Z,37.10
2019-02-28T07:00:50.414Z,36.03
2019-02-28T07:03:18.786Z,36.00
2019-02-28T07:05:47.392Z,36.90
2019-02-28T07:08:16.000Z,36.70
2019-02-28T07:10:48.437Z,34.83
2019-02-28T07:13:16.254Z,35.67
2019-02-28T07:15:44.930Z,36.77
2019-02-28T07:18:13.942Z,36.40
2019-02-28T07:20:42.600Z,35.57
2019-02-28T07:23:11.208Z,35.07
2019-02-28T07:25:39.826Z,33.37
2019-02-28T07:28:08.416Z,33.50
2019-02-28T07:30:37.014Z,32.93
2019-02-28T07:33:09.476Z,33.90
2019-02-28T07:35:36.884Z,32.80
2019-02-28T07:38:05.882Z,32.60
2019-02-28T07:40:53.758Z,34.70
2019-02-28T07:43:22.596Z,35.00
2019-02-28T07:45:52.248Z,33.37
2019-02-28T07:48:26.841Z,35.50
2019-02-28T07:50:51.291Z,37.13
2019-02-28T07:53:19.882Z,37.50
2019-02-28T07:55:48.497Z,34.77
2019-02-28T07:58:17.099Z,37.37
2019-02-28T08:00:45.734Z,40.10
2019-02-28T08:06:21.250Z,40.17
2019-02-28T08:08:49.865Z,36.67
2019-02-28T08:11:19.917Z,40.23
2019-02-28T08:13:49.185Z,35.93
2019-02-28T08:16:17.806Z,38.87
2019-02-28T08:18:46.963Z,37.57
2019-02-28T08:21:34.825Z,37.10
2019-02-28T08:24:05.354Z,36.97
2019-02-28T08:29:11.617Z,38.53
2019-02-28T08:31:39.419Z,38.50
2019-02-28T08:34:08.013Z,39.50
2019-02-28T08:36:36.638Z,39.57
2019-02-28T08:41:45.629Z,40.70
2019-02-28T08:44:14.217Z,39.87
2019-02-28T08:46:43.560Z,40.23
2019-02-28T08:49:13.390Z,39.67
2019-02-28T08:51:43.235Z,40.13
2019-02-28T08:54:11.957Z,37.97
2019-02-28T08:56:40.574Z,37.30
2019-02-28T08:59:12.045Z,38.20
2019-02-28T09:01:41.299Z,38.13
2019-02-28T09:06:43.647Z,39.80
2019-02-28T09:09:34.411Z,41.40
2019-02-28T09:12:04.246Z,38.40
2019-02-28T09:14:33.105Z,41.10
2019-02-28T09:17:01.975Z,39.30
2019-02-28T09:19:32.528Z,36.53
2019-02-28T09:22:01.128Z,41.07
2019-02-28T09:24:29.757Z,38.57
2019-02-28T09:26:58.343Z,39.33
2019-02-28T09:29:27.231Z,41.30
2019-02-28T09:31:56.295Z,39.63
2019-02-28T09:34:45.567Z,42.10
2019-02-28T09:37:14.365Z,39.13
2019-02-28T09:39:43.265Z,41.70
2019-02-28T09:42:32.842Z,40.73
2019-02-28T09:45:06.574Z,40.93
2019-02-28T09:47:31.841Z,43.80
2019-02-28T09:50:00.505Z,42.77
2019-02-28T09:52:29.136Z,43.70
2019-02-28T09:54:59.253Z,43.53
2019-02-28T09:57:53.688Z,44.70
2019-02-28T10:00:18.960Z,42.27
2019-02-28T10:02:48.632Z,41.63
2019-02-28T10:05:17.346Z,40.60
2019-02-28T10:07:46.048Z,42.00
2019-02-28T10:10:20.777Z,41.27
2019-02-28T10:12:50.153Z,40.63
2019-02-28T10:15:59.246Z,41.37
2019-02-28T10:18:27.971Z,41.70
2019-02-28T10:20:59.013Z,42.40
2019-02-28T10:23:27.075Z,42.77
2019-02-28T10:25:55.764Z,42.87
2019-02-28T10:28:24.417Z,39.40
2019-02-28T10:30:53.122Z,42.30
2019-02-28T10:33:21.879Z,44.10
2019-02-28T10:35:50.540Z,42.07
2019-02-28T10:38:19.507Z,43.87
2019-02-28T10:40:49.299Z,42.97
2019-02-28T10:43:18.576Z,43.20
2019-02-28T10:45:47.196Z,42.67
2019-02-28T10:48:15.913Z,40.53
2019-02-28T10:50:44.515Z,41.20
2019-02-28T10:53:13.197Z,41.73
2019-02-28T10:55:42.196Z,41.50
2019-02-28T10:58:12.470Z,42.17
2019-02-28T11:01:07.566Z,41.70
2019-02-28T11:03:33.274Z,39.87
2019-02-28T11:06:03.184Z,40.87
2019-02-28T11:08:31.805Z,41.40
2019-02-28T11:11:01.369Z,41.77
2019-02-28T11:13:32.173Z,39.97
2019-02-28T11:16:01.231Z,42.37
2019-02-28T11:18:30.218Z,40.27
2019-02-28T11:20:59.375Z,38.90
2019-02-28T11:23:27.994Z,39.20
2019-02-28T11:25:56.916Z,39.97
2019-02-28T11:28:28.257Z,39.93
2019-02-28T11:30:56.121Z,40.30
2019-02-28T11:33:24.741Z,38.17
2019-02-28T11:35:57.857Z,40.70
2019-02-28T11:38:26.598Z,36.77
2019-02-28T11:40:57.568Z,38.60
2019-02-28T11:43:26.813Z,39.00
2019-02-28T11:45:56.495Z,35.80
2019-02-28T11:48:26.122Z,35.73
2019-02-28T11:53:43.683Z,36.30
2019-02-28T11:56:12.297Z,34.37
2019-02-28T11:58:40.900Z,36.27
2019-02-28T12:01:30.635Z,34.90
2019-02-28T12:03:59.369Z,32.40
2019-02-28T12:06:28.015Z,31.40
2019-02-28T12:08:56.740Z,30.67
2019-02-28T12:11:25.362Z,31.63
2019-02-28T12:13:55.199Z,33.43
2019-02-28T12:16:24.305Z,32.23
2019-02-28T12:21:27.735Z,31.20
2019-02-28T12:23:57.285Z,31.47
2019-02-28T12:26:26.999Z,30.83
2019-02-28T12:28:55.623Z,33.13
2019-02-28T12:31:24.659Z,31.00
2019-02-28T12:33:56.707Z,31.90
2019-02-28T12:36:23.732Z,31.83
2019-02-28T12:42:00.678Z,29.90
2019-02-28T12:44:29.286Z,30.50
2019-02-28T12:46:57.910Z,30.60
2019-02-28T12:49:27.666Z,29.53
2019-02-28T12:51:56.850Z,30.70
2019-02-28T12:54:26.066Z,28.03
2019-02-28T12:56:54.737Z,28.10
2019-02-28T12:59:23.833Z,25.80
2019-02-28T13:01:52.579Z,25.23
2019-02-28T13:04:21.350Z,23.10
2019-02-28T13:06:50.191Z,23.20
2019-02-28T13:09:18.803Z,24.00
2019-02-28T13:11:47.838Z,23.23
2019-02-28T13:14:16.437Z,24.17
2019-02-28T13:16:45.069Z,25.80
2019-02-28T13:19:16.356Z,23.30
2019-02-28T13:21:46.802Z,22.60
2019-02-28T13:24:33.936Z,23.90
2019-02-28T13:27:05.744Z,20.73
2019-02-28T13:29:33.932Z,23.03
2019-02-28T13:32:02.723Z,23.70
2019-02-28T13:34:31.329Z,24.10
2019-02-28T13:37:02.911Z,23.83
2019-02-28T13:39:31.599Z,22.70
2019-02-28T13:42:03.192Z,42.73
2019-02-28T13:44:31.734Z,21.93
2019-02-28T13:47:01.770Z,21.97
2019-02-28T13:49:30.481Z,20.77
2019-02-28T13:51:59.090Z,20.30
2019-02-28T13:54:27.688Z,18.60
2019-02-28T13:56:56.309Z,19.13
2019-02-28T13:59:25.102Z,19.57
2019-02-28T14:01:55.486Z,18.00
2019-02-28T14:04:27.112Z,19.47
2019-02-28T14:06:56.820Z,19.30
2019-02-28T14:09:26.509Z,20.93
2019-02-28T14:11:55.295Z,18.67
2019-02-28T14:14:23.941Z,19.00
2019-02-28T14:16:52.706Z,20.20
2019-02-28T14:19:21.681Z,20.30
2019-02-28T14:21:50.389Z,20.87
2019-02-28T14:24:19.021Z,20.97
2019-02-28T14:26:49.507Z,20.73
2019-02-28T14:29:18.530Z,20.80
2019-02-28T14:31:47.276Z,21.13
2019-02-28T14:34:16.223Z,22.50
2019-02-28T14:36:46.174Z,21.03
2019-02-28T14:39:14.823Z,21.90
2019-02-28T14:41:43.790Z,20.73
2019-02-28T14:44:12.534Z,22.77
2019-02-28T14:46:41.418Z,20.80
2019-02-28T14:49:12.462Z,20.90
2019-02-28T14:51:40.925Z,23.30
2019-02-28T14:54:09.546Z,23.33
2019-02-28T14:56:39.571Z,22.73
2019-02-28T14:59:08.485Z,23.10
2019-02-28T15:01:37.112Z,22.57
2019-02-28T15:04:07.758Z,21.80
2019-02-28T15:06:36.404Z,23.90
2019-02-28T15:09:27.064Z,24.27
2019-02-28T15:11:56.479Z,24.70
2019-02-28T15:14:25.077Z,23.50
2019-02-28T15:16:53.722Z,24.50
2019-02-28T15:19:43.298Z,26.00
2019-02-28T15:25:05.714Z,26.40
2019-02-28T15:27:36.339Z,27.40
2019-02-28T15:30:05.986Z,26.27
2019-02-28T15:35:12.454Z,26.20
2019-02-28T15:37:41.741Z,27.90
2019-02-28T15:40:12.929Z,30.50
2019-02-28T15:43:02.901Z,28.87
2019-02-28T15:45:31.648Z,29.00
2019-02-28T15:48:00.503Z,30.10
2019-02-28T15:50:29.152Z,28.50
2019-02-28T15:53:37.602Z,30.13
2019-02-28T15:56:13.193Z,28.53
2019-02-28T15:58:37.647Z,31.07
2019-02-28T16:01:08.173Z,30.27
2019-02-28T16:03:37.157Z,31.70
2019-02-28T16:06:05.840Z,30.90
2019-02-28T16:08:34.455Z,34.27
2019-02-28T16:11:03.379Z,34.90
2019-02-28T16:13:33.478Z,36.83
2019-02-28T16:16:02.104Z,37.60
2019-02-28T16:18:30.717Z,39.27
2019-02-28T16:20:59.424Z,40.90
2019-02-28T16:23:30.928Z,47.63
2019-02-28T16:25:58.432Z,47.90
2019-02-28T16:28:27.070Z,56.67
2019-02-28T16:30:55.782Z,60.13
2019-02-28T16:33:24.755Z,62.13
2019-02-28T16:35:54.119Z,62.80
2019-02-28T16:38:22.764Z,62.53
2019-02-28T16:40:51.532Z,58.90
2019-02-28T16:43:20.916Z,59.97
2019-02-28T16:45:50.588Z,56.13
2019-02-28T16:48:19.921Z,57.10
2019-02-28T16:50:50.584Z,56.67
2019-02-28T16:53:19.075Z,54.13
2019-02-28T16:58:35.356Z,47.40
2019-02-28T17:01:03.992Z,43.47
2019-02-28T17:03:32.595Z,40.37
2019-02-28T17:06:02.259Z,41.50
2019-02-28T17:11:09.158Z,34.50
2019-02-28T17:13:43.307Z,33.10
2019-02-28T17:16:33.628Z,34.53
2019-02-28T17:19:01.401Z,34.37
2019-02-28T17:21:30.011Z,32.40
2019-02-28T17:24:17.864Z,30.60
2019-02-28T17:27:06.270Z,30.60
2019-02-28T17:29:57.618Z,29.47
2019-02-28T17:32:27.979Z,30.40
2019-02-28T17:34:56.111Z,30.60
2019-02-28T17:37:26.798Z,29.03
2019-02-28T17:39:55.400Z,28.00
2019-02-28T17:42:24.096Z,26.90
2019-02-28T17:45:50.627Z,26.40
2019-02-28T17:49:00.464Z,24.93
2019-02-28T17:51:55.401Z,25.27
2019-02-28T17:54:43.674Z,26.70
2019-02-28T17:57:37.617Z,24.87
2019-02-28T18:00:29.379Z,24.27
2019-02-28T18:03:36.517Z,23.50
2019-02-28T18:06:47.253Z,24.13
2019-02-28T18:09:40.553Z,21.70
2019-02-28T18:12:49.747Z,23.83
2019-02-28T18:15:34.900Z,23.87
2019-02-28T18:18:43.272Z,22.00
2019-02-28T18:21:41.035Z,22.70
2019-02-28T18:24:44.147Z,22.13
2019-02-28T18:27:51.275Z,22.60
2019-02-28T18:30:48.063Z,20.40
2019-02-28T18:33:36.133Z,19.17
2019-02-28T18:36:08.296Z,18.07
2019-02-28T18:38:37.965Z,17.80
2019-02-28T18:41:06.933Z,19.90
2019-02-28T18:43:35.789Z,17.90
2019-02-28T18:46:04.878Z,18.07
2019-02-28T18:48:33.572Z,19.30
2019-02-28T18:51:02.530Z,20.90
2019-02-28T18:53:31.284Z,20.90
2019-02-28T18:56:00.178Z,19.23
2019-02-28T18:58:28.818Z,19.40
2019-02-28T19:00:57.527Z,21.23
2019-02-28T19:03:26.242Z,20.97
2019-02-28T19:05:54.919Z,21.13
2019-02-28T19:08:23.617Z,21.20
2019-02-28T19:10:52.303Z,20.50
2019-02-28T19:13:21.010Z,22.10
2019-02-28T19:15:49.851Z,22.03
2019-02-28T19:18:18.480Z,24.57
2019-02-28T19:20:47.158Z,22.93
2019-02-28T19:23:15.783Z,22.00
2019-02-28T19:25:44.391Z,23.43
2019-02-28T19:28:13.014Z,24.73
2019-02-28T19:30:41.659Z,28.17
2019-02-28T19:33:10.340Z,27.00
2019-02-28T19:35:39.018Z,25.73
2019-02-28T19:38:07.616Z,28.07
2019-02-28T19:40:36.300Z,28.60
2019-02-28T19:43:05.336Z,25.00
2019-02-28T19:45:34.409Z,24.50
2019-02-28T19:48:03.040Z,26.10
2019-02-28T19:50:31.645Z,24.80
2019-02-28T19:53:00.276Z,25.07
2019-02-28T19:58:03.061Z,25.90
2019-02-28T20:03:06.000Z,25.47
2019-02-28T20:05:34.624Z,24.00
2019-02-28T20:08:03.330Z,24.00
2019-02-28T20:10:32.103Z,25.10
2019-02-28T20:13:00.912Z,25.03
2019-02-28T20:15:30.777Z,25.57
2019-02-28T20:17:59.540Z,23.53
2019-02-28T20:20:28.524Z,22.13
2019-02-28T20:22:57.628Z,22.80
2019-02-28T20:25:27.424Z,24.90
2019-02-28T20:27:56.091Z,21.90
2019-02-28T20:30:25.938Z,22.90
2019-02-28T20:32:54.794Z,21.60
2019-02-28T20:35:26.664Z,21.00
2019-02-28T20:37:53.911Z,22.40
2019-02-28T20:40:22.861Z,22.10
2019-02-28T20:42:51.905Z,23.10
2019-02-28T20:45:20.636Z,24.70
2019-02-28T20:47:49.515Z,24.10
2019-02-28T20:50:21.534Z,22.03
2019-02-28T20:52:50.178Z,21.73
2019-02-28T20:55:18.816Z,22.40
2019-02-28T20:57:55.157Z,21.83
2019-02-28T21:00:25.848Z,21.07
2019-02-28T21:02:54.468Z,22.90
2019-02-28T21:05:23.155Z,23.07
2019-02-28T21:07:51.828Z,22.97
2019-02-28T21:10:20.630Z,24.03
2019-02-28T21:12:49.255Z,23.63
2019-02-28T21:15:17.847Z,22.60
2019-02-28T21:17:46.452Z,22.90
2019-02-28T21:20:35.887Z,25.00
2019-02-28T21:23:04.819Z,21.60
2019-02-28T21:25:34.456Z,23.60
2019-02-28T21:28:03.094Z,23.10
2019-02-28T21:30:31.751Z,22.70
2019-02-28T21:33:00.621Z,23.10
2019-02-28T21:35:29.362Z,22.93
2019-02-28T21:37:57.965Z,23.93
2019-02-28T21:40:26.663Z,24.40
2019-02-28T21:42:55.277Z,23.10
2019-02-28T21:45:23.980Z,22.63
2019-02-28T21:47:52.649Z,21.90
2019-02-28T21:50:21.361Z,21.70
2019-02-28T21:52:50.044Z,20.00
2019-02-28T21:55:18.708Z,20.83
2019-02-28T21:57:47.435Z,19.53
2019-02-28T22:00:18.599Z,19.20
2019-02-28T22:02:47.234Z,17.27
2019-02-28T22:05:15.938Z,17.77
2019-02-28T22:07:44.723Z,15.40
2019-02-28T22:10:13.498Z,15.90
2019-02-28T22:12:42.125Z,15.47
2019-02-28T22:15:12.859Z,14.57
2019-02-28T22:17:41.477Z,14.00
2019-02-28T22:20:11.180Z,14.27
2019-02-28T22:22:39.878Z,13.60
2019-02-28T22:25:09.429Z,12.30
2019-02-28T22:27:38.023Z,12.17
2019-02-28T22:30:45.867Z,11.27
2019-02-28T22:33:21.677Z,10.80
2019-02-28T22:35:52.859Z,10.80
2019-02-28T22:38:21.471Z,11.13
2019-02-28T22:41:09.341Z,10.60
2019-02-28T22:43:37.941Z,11.80
2019-02-28T22:46:06.561Z,13.47
2019-02-28T22:48:35.240Z,12.00
2019-02-28T22:51:03.830Z,11.63
2019-02-28T22:53:32.468Z,11.70
2019-02-28T22:56:01.067Z,10.70
2019-02-28T22:58:29.942Z,10.60
2019-02-28T23:01:19.585Z,9.47
2019-02-28T23:03:48.200Z,10.67
2019-02-28T23:06:17.190Z,10.70
2019-02-28T23:08:45.805Z,10.10
2019-02-28T23:11:14.405Z,11.00
2019-02-28T23:13:43.024Z,11.00
2019-02-28T23:16:11.711Z,10.23
2019-02-28T23:18:40.307Z,11.50
2019-02-28T23:21:08.901Z,11.87
2019-02-28T23:23:37.486Z,9.43
2019-02-28T23:26:07.884Z,9.40
2019-02-28T23:28:41.864Z,8.90
2019-02-28T23:31:34.872Z,6.53
2019-02-28T23:34:07.844Z,6.43
2019-02-28T23:36:36.436Z,7.50
2019-02-28T23:39:25.848Z,6.80
2019-02-28T23:41:54.467Z,7.37
2019-02-28T23:44:42.301Z,8.00
2019-02-28T23:47:10.916Z,7.00
2019-02-28T23:49:39.511Z,7.00
2019-02-28T23:52:08.203Z,6.70
2019-02-28T23:54:36.801Z,7.53
2019-02-28T23:57:05.471Z,7.10
2019-02-28T23:59:34.067Z,7.40
